createdAt,value
2023-03-05T00:01:56.128Z,4.24
2023-03-05T00:04:23.714Z,4.44
2023-03-05T00:06:50.963Z,4.69
2023-03-05T00:09:18.124Z,4.82
2023-03-05T00:11:45.277Z,4.84
2023-03-05T00:14:12.675Z,4.77
2023-03-05T00:16:40.080Z,5.02
2023-03-05T00:19:07.531Z,4.94
2023-03-05T00:21:38.545Z,5.10
2023-03-05T00:24:13.880Z,5.25
2023-03-05T00:26:41.313Z,5.46
2023-03-05T00:29:09.648Z,5.31
2023-03-05T00:31:38.234Z,5.32
2023-03-05T00:34:09.223Z,5.27
2023-03-05T00:36:40.758Z,5.43
2023-03-05T00:39:08.011Z,5.54
2023-03-05T00:41:35.167Z,5.01
2023-03-05T00:44:02.371Z,4.62
2023-03-05T00:46:29.723Z,4.43
2023-03-05T00:48:57.610Z,4.41
2023-03-05T00:51:25.820Z,4.39
2023-03-05T00:53:53.196Z,4.48
2023-03-05T00:56:20.525Z,4.26
2023-03-05T00:58:47.735Z,4.23
2023-03-05T01:01:14.940Z,4.52
2023-03-05T01:03:42.166Z,4.59
2023-03-05T01:06:12.047Z,4.62
2023-03-05T01:08:39.599Z,4.77
2023-03-05T01:11:07.643Z,4.82
2023-03-05T01:13:35.141Z,4.89
2023-03-05T01:16:04.095Z,4.98
2023-03-05T01:18:31.381Z,5.03
2023-03-05T01:20:58.477Z,5.09
2023-03-05T01:23:25.759Z,5.09
2023-03-05T01:25:58.000Z,5.04
2023-03-05T01:28:25.860Z,4.90
2023-03-05T01:30:53.365Z,4.84
2023-03-05T01:33:20.685Z,4.96
2023-03-05T01:35:49.079Z,5.02
2023-03-05T01:38:16.867Z,5.11
2023-03-05T01:40:44.693Z,5.11
2023-03-05T01:43:12.094Z,4.93
2023-03-05T01:46:00.236Z,4.71
2023-03-05T01:48:27.914Z,4.68
2023-03-05T01:50:55.111Z,4.51
2023-03-05T01:53:22.284Z,4.52
2023-03-05T01:55:49.928Z,4.50
2023-03-05T01:58:18.050Z,4.47
2023-03-05T02:00:48.592Z,4.77
2023-03-05T02:03:16.579Z,4.96
2023-03-05T02:05:44.650Z,5.20
2023-03-05T02:08:17.523Z,5.28
2023-03-05T02:10:51.027Z,4.75
2023-03-05T02:13:23.647Z,4.66
2023-03-05T02:15:53.036Z,4.48
2023-03-05T02:18:21.288Z,4.44
2023-03-05T02:20:55.728Z,4.27
2023-03-05T02:23:29.160Z,4.08
2023-03-05T02:25:56.756Z,3.75
2023-03-05T02:28:37.654Z,3.55
2023-03-05T02:31:16.142Z,3.56
2023-03-05T02:33:44.157Z,3.56
2023-03-05T02:36:12.349Z,3.40
2023-03-05T02:38:40.804Z,3.26
2023-03-05T02:41:09.457Z,3.31
2023-03-05T02:43:37.215Z,3.32
2023-03-05T02:46:05.094Z,3.40
2023-03-05T02:48:32.754Z,3.49
2023-03-05T02:51:01.662Z,3.55
2023-03-05T02:53:28.869Z,3.61
2023-03-05T02:55:56.672Z,3.67
2023-03-05T02:58:23.859Z,3.76
2023-03-05T03:00:51.348Z,3.89
2023-03-05T03:03:18.716Z,3.96
2023-03-05T03:05:45.914Z,3.96
2023-03-05T03:08:12.995Z,3.81
2023-03-05T03:10:40.056Z,3.58
2023-03-05T03:13:07.182Z,3.41
2023-03-05T03:15:34.962Z,3.44
2023-03-05T03:18:02.012Z,3.40
2023-03-05T03:20:29.045Z,3.45
2023-03-05T03:22:56.170Z,3.37
2023-03-05T03:25:23.509Z,3.31
2023-03-05T03:27:52.583Z,3.30
2023-03-05T03:30:19.700Z,3.33
2023-03-05T03:32:48.129Z,3.31
2023-03-05T03:35:15.228Z,3.35
2023-03-05T03:37:42.400Z,3.31
2023-03-05T03:40:11.356Z,3.42
2023-03-05T03:42:38.470Z,3.52
2023-03-05T03:45:06.041Z,3.65
2023-03-05T03:47:33.197Z,3.62
2023-03-05T03:50:00.306Z,3.63
2023-03-05T03:52:27.641Z,3.34
2023-03-05T03:55:01.442Z,3.10
2023-03-05T03:57:30.250Z,3.22
2023-03-05T03:59:57.406Z,3.25
2023-03-05T04:02:24.667Z,3.33
2023-03-05T04:04:52.584Z,3.48
2023-03-05T04:07:20.096Z,3.52
2023-03-05T04:09:47.259Z,3.56
2023-03-05T04:12:18.278Z,3.61
2023-03-05T04:14:47.066Z,3.64
2023-03-05T04:17:14.411Z,3.68
2023-03-05T04:19:42.696Z,3.59
2023-03-05T04:22:12.773Z,3.46
2023-03-05T04:24:40.043Z,3.32
2023-03-05T04:27:07.469Z,3.34
2023-03-05T04:29:35.344Z,3.39
2023-03-05T04:32:02.590Z,3.42
2023-03-05T04:34:29.802Z,3.29
2023-03-05T04:36:57.424Z,3.20
2023-03-05T04:39:25.121Z,3.24
2023-03-05T04:41:52.379Z,3.44
2023-03-05T04:44:19.506Z,3.54
2023-03-05T04:46:46.583Z,3.53
2023-03-05T04:49:13.696Z,3.52
2023-03-05T04:51:40.786Z,3.39
2023-03-05T04:54:08.736Z,3.42
2023-03-05T04:56:35.946Z,3.42
2023-03-05T04:59:03.104Z,3.56
2023-03-05T05:01:30.277Z,3.72
2023-03-05T05:03:57.348Z,3.75
2023-03-05T05:06:24.477Z,3.95
2023-03-05T05:08:51.520Z,4.01
2023-03-05T05:11:18.653Z,4.09
2023-03-05T05:13:45.898Z,4.12
2023-03-05T05:16:13.205Z,4.11
2023-03-05T05:18:40.296Z,4.08
2023-03-05T05:21:09.577Z,4.06
2023-03-05T05:23:36.980Z,4.13
2023-03-05T05:26:05.979Z,4.17
2023-03-05T05:28:33.633Z,4.20
2023-03-05T05:31:01.036Z,4.13
2023-03-05T05:33:28.091Z,4.08
2023-03-05T05:35:55.209Z,4.18
2023-03-05T05:38:22.261Z,4.16
2023-03-05T05:40:49.307Z,4.21
2023-03-05T05:43:16.365Z,4.32
2023-03-05T05:45:43.794Z,4.37
2023-03-05T05:48:11.007Z,4.45
2023-03-05T05:50:39.433Z,4.55
2023-03-05T05:53:06.499Z,4.57
2023-03-05T05:55:33.616Z,4.62
2023-03-05T05:58:00.681Z,4.69
2023-03-05T06:00:27.814Z,4.74
2023-03-05T06:02:55.013Z,4.76
2023-03-05T06:05:22.287Z,4.91
2023-03-05T06:07:49.295Z,5.07
2023-03-05T06:10:16.419Z,5.48
2023-03-05T06:12:43.693Z,5.56
2023-03-05T06:15:11.020Z,5.85
2023-03-05T06:17:38.550Z,5.89
2023-03-05T06:20:07.116Z,6.21
2023-03-05T06:22:39.140Z,6.33
2023-03-05T06:25:10.036Z,6.41
2023-03-05T06:27:37.933Z,6.29
2023-03-05T06:30:06.592Z,5.90
2023-03-05T06:32:33.921Z,5.47
2023-03-05T06:35:01.009Z,5.47
2023-03-05T06:37:28.186Z,5.52
2023-03-05T06:39:55.291Z,5.58
2023-03-05T06:42:22.515Z,5.68
2023-03-05T06:44:49.576Z,5.62
2023-03-05T06:47:16.683Z,5.62
2023-03-05T06:49:43.789Z,5.55
2023-03-05T06:52:12.941Z,5.79
2023-03-05T06:54:40.536Z,5.82
2023-03-05T06:57:07.611Z,5.90
2023-03-05T06:59:34.706Z,5.89
2023-03-05T07:02:01.756Z,5.81
2023-03-05T07:04:28.882Z,5.76
2023-03-05T07:06:56.092Z,6.01
2023-03-05T07:09:23.242Z,6.27
2023-03-05T07:11:50.330Z,6.35
2023-03-05T07:14:17.472Z,6.26
2023-03-05T07:16:44.528Z,6.22
2023-03-05T07:19:11.699Z,6.11
2023-03-05T07:21:40.056Z,6.20
2023-03-05T07:24:09.057Z,6.22
2023-03-05T07:26:36.583Z,6.28
2023-03-05T07:29:04.210Z,6.25
2023-03-05T07:31:32.225Z,6.28
2023-03-05T07:34:01.871Z,6.26
2023-03-05T07:36:30.930Z,6.38
2023-03-05T07:38:58.120Z,6.52
2023-03-05T07:41:25.444Z,6.57
2023-03-05T07:43:54.468Z,6.77
2023-03-05T07:46:25.673Z,6.88
2023-03-05T07:48:54.725Z,6.91
2023-03-05T07:51:23.567Z,6.69
2023-03-05T07:53:52.251Z,6.74
2023-03-05T07:56:31.900Z,6.66
2023-03-05T07:59:00.778Z,6.54
2023-03-05T08:01:29.106Z,6.50
2023-03-05T08:03:56.499Z,6.41
2023-03-05T08:06:23.869Z,6.37
2023-03-05T08:08:51.022Z,6.50
2023-03-05T08:11:18.214Z,6.54
2023-03-05T08:13:45.797Z,6.47
2023-03-05T08:16:15.953Z,6.58
2023-03-05T08:18:44.132Z,6.66
2023-03-05T08:21:22.301Z,6.54
2023-03-05T08:23:50.140Z,6.38
2023-03-05T08:26:20.777Z,6.62
2023-03-05T08:28:47.967Z,6.85
2023-03-05T08:31:17.018Z,7.14
2023-03-05T08:33:44.216Z,7.21
2023-03-05T08:36:11.341Z,7.08
2023-03-05T08:38:38.416Z,7.26
2023-03-05T08:41:06.277Z,7.53
2023-03-05T08:43:33.626Z,7.57
2023-03-05T08:46:02.193Z,7.67
2023-03-05T08:48:29.988Z,7.67
2023-03-05T08:50:57.106Z,7.65
2023-03-05T08:53:24.377Z,7.61
2023-03-05T08:55:55.780Z,7.35
2023-03-05T08:58:23.090Z,7.30
2023-03-05T09:00:50.430Z,7.41
2023-03-05T09:03:18.077Z,7.35
2023-03-05T09:05:45.257Z,7.40
2023-03-05T09:08:12.881Z,7.58
2023-03-05T09:10:42.804Z,7.68
2023-03-05T09:13:10.693Z,8.28
2023-03-05T09:15:38.599Z,8.50
2023-03-05T09:18:05.959Z,8.81
2023-03-05T09:20:34.054Z,8.82
2023-03-05T09:23:01.278Z,9.01
2023-03-05T09:25:28.421Z,9.14
2023-03-05T09:27:55.583Z,9.28
2023-03-05T09:30:22.856Z,9.29
2023-03-05T09:32:51.272Z,9.68
2023-03-05T09:35:18.503Z,9.65
2023-03-05T09:37:45.591Z,9.56
2023-03-05T09:40:17.238Z,9.58
2023-03-05T09:43:06.040Z,9.86
2023-03-05T10:18:05.945Z,9.85
2023-03-05T10:20:38.949Z,9.79
2023-03-05T10:23:08.767Z,9.89
2023-03-05T10:25:47.952Z,10.11
2023-03-05T10:28:36.479Z,10.31
2023-03-05T10:31:18.745Z,10.50
2023-03-05T10:33:59.429Z,10.41
2023-03-05T10:36:41.771Z,10.45
2023-03-05T10:39:40.516Z,10.18
2023-03-05T10:42:21.716Z,10.11
2023-03-05T10:44:54.976Z,10.21
2023-03-05T10:47:24.243Z,10.32
2023-03-05T10:49:54.653Z,10.36
2023-03-05T10:52:35.436Z,10.27
2023-03-05T10:55:13.286Z,10.43
2023-03-05T10:57:40.456Z,10.26
2023-03-05T11:00:13.814Z,10.63
2023-03-05T11:02:58.044Z,10.66
2023-03-05T11:05:47.626Z,10.00
2023-03-05T11:08:35.586Z,9.78
2023-03-05T11:11:20.854Z,10.07
2023-03-05T11:13:55.958Z,9.88
2023-03-05T11:16:25.044Z,9.78
2023-03-05T11:19:17.665Z,10.01
2023-03-05T11:21:46.691Z,9.93
2023-03-05T11:24:19.422Z,9.90
2023-03-05T11:26:47.465Z,9.98
2023-03-05T11:29:23.890Z,10.25
2023-03-05T11:31:51.953Z,10.19
2023-03-05T11:34:18.964Z,10.33
2023-03-05T11:36:55.733Z,10.20
2023-03-05T11:39:25.311Z,10.17
2023-03-05T11:41:54.229Z,10.10
2023-03-05T11:44:28.891Z,10.15
2023-03-05T11:47:17.503Z,10.20
2023-03-05T11:49:48.010Z,10.16
2023-03-05T11:52:32.316Z,10.07
2023-03-05T11:55:19.816Z,9.81
2023-03-05T11:57:50.683Z,10.04
2023-03-05T12:00:24.936Z,10.37
2023-03-05T12:02:56.589Z,10.22
2023-03-05T12:05:23.840Z,9.84
2023-03-05T12:07:55.553Z,10.04
2023-03-05T12:10:25.718Z,10.25
2023-03-05T12:13:23.825Z,10.25
2023-03-05T12:16:09.912Z,10.37
2023-03-05T12:18:55.178Z,10.32
2023-03-05T12:21:37.128Z,10.16
2023-03-05T12:24:27.344Z,10.17
2023-03-05T12:27:04.214Z,10.27
2023-03-05T12:29:31.469Z,10.46
2023-03-05T12:32:01.961Z,10.41
2023-03-05T12:34:40.959Z,10.60
2023-03-05T12:37:34.882Z,10.45
2023-03-05T12:40:12.822Z,10.34
2023-03-05T12:42:46.032Z,10.59
2023-03-05T12:45:14.553Z,11.10
2023-03-05T12:47:45.210Z,11.33
2023-03-05T12:50:27.185Z,11.36
2023-03-05T12:52:59.861Z,11.16
2023-03-05T12:55:47.717Z,11.55
2023-03-05T12:58:40.265Z,11.41
2023-03-05T13:01:25.936Z,11.72
2023-03-05T13:04:05.289Z,11.57
2023-03-05T13:06:35.698Z,11.74
2023-03-05T13:09:14.918Z,11.58
2023-03-05T13:11:45.454Z,11.46
2023-03-05T13:14:30.565Z,11.39
2023-03-05T13:16:58.314Z,11.38
2023-03-05T13:19:25.474Z,11.24
2023-03-05T13:22:00.751Z,11.39
2023-03-05T13:24:29.375Z,11.40
2023-03-05T13:26:56.981Z,11.19
2023-03-05T13:29:30.900Z,10.93
2023-03-05T13:32:01.907Z,11.35
2023-03-05T13:34:41.100Z,11.45
2023-03-05T13:37:22.505Z,11.52
2023-03-05T13:40:00.231Z,11.18
2023-03-05T13:42:34.749Z,10.95
2023-03-05T13:45:20.536Z,10.87
2023-03-05T13:47:55.191Z,10.48
2023-03-05T13:50:31.514Z,10.45
2023-03-05T13:53:19.471Z,10.78
2023-03-05T13:55:48.460Z,10.61
2023-03-05T13:58:40.874Z,10.41
2023-03-05T14:02:08.436Z,10.28
2023-03-05T14:04:54.410Z,10.09
2023-03-05T14:07:34.687Z,10.21
2023-03-05T14:10:03.307Z,9.88
2023-03-05T14:12:36.178Z,9.35
2023-03-05T14:15:16.901Z,9.35
2023-03-05T14:17:44.188Z,9.11
2023-03-05T14:20:14.243Z,9.40
2023-03-05T14:22:48.654Z,9.67
2023-03-05T14:25:39.798Z,9.25
2023-03-05T14:28:25.429Z,8.87
2023-03-05T14:30:55.992Z,8.75
2023-03-05T14:33:28.733Z,8.47
2023-03-05T14:35:57.961Z,8.42
2023-03-05T14:38:30.033Z,8.53
2023-03-05T14:40:57.657Z,8.43
2023-03-05T14:43:24.834Z,8.06
2023-03-05T14:45:51.962Z,8.06
2023-03-05T14:48:19.258Z,7.93
2023-03-05T14:50:53.209Z,7.93
2023-03-05T14:53:25.001Z,7.78
2023-03-05T14:55:57.748Z,7.94
2023-03-05T14:58:27.717Z,7.92
2023-03-05T15:00:55.706Z,7.91
2023-03-05T15:03:25.770Z,7.95
2023-03-05T15:05:55.711Z,7.55
2023-03-05T15:08:28.225Z,7.88
2023-03-05T15:10:56.241Z,7.81
2023-03-05T15:13:23.426Z,7.82
2023-03-05T15:15:52.675Z,7.78
2023-03-05T15:18:21.984Z,7.67
2023-03-05T15:20:52.088Z,7.76
2023-03-05T15:23:19.972Z,8.01
2023-03-05T15:25:47.449Z,7.98
2023-03-05T15:28:15.076Z,8.03
2023-03-05T15:30:46.405Z,7.67
2023-03-05T15:33:16.808Z,7.60
2023-03-05T15:35:44.332Z,7.52
2023-03-05T15:38:11.685Z,7.49
2023-03-05T15:40:38.737Z,7.67
2023-03-05T15:43:05.982Z,7.82
2023-03-05T15:45:33.818Z,7.63
2023-03-05T15:48:01.180Z,7.59
2023-03-05T15:50:28.294Z,7.47
2023-03-05T15:52:55.361Z,7.25
2023-03-05T15:55:22.466Z,7.31
2023-03-05T15:57:51.336Z,7.38
2023-03-05T16:00:26.157Z,7.49
2023-03-05T16:02:53.590Z,6.89
2023-03-05T16:05:20.737Z,7.34
2023-03-05T16:07:51.882Z,7.43
2023-03-05T16:10:22.963Z,7.35
2023-03-05T16:12:54.328Z,7.63
2023-03-05T16:15:22.514Z,7.78
2023-03-05T16:17:54.610Z,7.78
2023-03-05T16:20:22.455Z,7.66
2023-03-05T16:22:49.934Z,7.47
2023-03-05T16:25:17.860Z,7.41
2023-03-05T16:27:45.367Z,7.47
2023-03-05T16:30:15.499Z,7.34
2023-03-05T16:32:43.064Z,7.22
2023-03-05T16:35:12.493Z,7.42
2023-03-05T16:37:40.471Z,7.20
2023-03-05T16:40:10.342Z,6.76
2023-03-05T16:42:37.732Z,6.58
2023-03-05T16:45:06.736Z,6.70
2023-03-05T16:47:34.011Z,6.93
2023-03-05T16:50:01.196Z,7.09
2023-03-05T16:52:28.796Z,7.13
2023-03-05T16:54:56.182Z,7.05
2023-03-05T16:57:25.745Z,6.77
2023-03-05T16:59:54.319Z,6.93
2023-03-05T17:02:21.692Z,7.15
2023-03-05T17:04:50.497Z,6.76
2023-03-05T17:07:18.358Z,7.24
2023-03-05T17:09:47.978Z,7.20
2023-03-05T17:12:15.159Z,7.16
2023-03-05T17:14:42.251Z,6.82
2023-03-05T17:17:09.424Z,6.91
2023-03-05T17:19:37.120Z,6.86
2023-03-05T17:22:05.277Z,6.63
2023-03-05T17:24:33.688Z,6.13
2023-03-05T17:27:01.410Z,5.63
2023-03-05T17:29:29.546Z,6.09
2023-03-05T17:31:56.759Z,5.96
2023-03-05T17:34:35.648Z,5.98
2023-03-05T17:37:04.669Z,6.25
2023-03-05T17:39:31.759Z,5.48
2023-03-05T17:41:58.936Z,5.24
2023-03-05T17:44:26.097Z,5.11
2023-03-05T17:46:53.532Z,5.53
2023-03-05T17:49:20.834Z,5.51
2023-03-05T17:51:48.042Z,5.96
2023-03-05T17:54:15.245Z,5.92
2023-03-05T17:56:42.512Z,6.00
2023-03-05T17:59:10.060Z,5.09
2023-03-05T18:01:37.330Z,4.75
2023-03-05T18:04:04.786Z,5.24
2023-03-05T18:06:32.923Z,5.54
2023-03-05T18:09:00.013Z,5.79
2023-03-05T18:11:27.761Z,5.46
2023-03-05T18:13:54.959Z,5.91
2023-03-05T18:16:23.684Z,5.69
2023-03-05T18:18:51.792Z,4.75
2023-03-05T18:21:24.064Z,5.18
2023-03-05T18:23:51.751Z,5.30
2023-03-05T18:26:18.824Z,5.61
2023-03-05T18:28:46.041Z,5.67
2023-03-05T18:31:13.319Z,5.90
2023-03-05T18:33:40.879Z,5.58
2023-03-05T18:36:10.876Z,5.31
2023-03-05T18:38:38.688Z,5.19
2023-03-05T18:41:06.713Z,4.88
2023-03-05T18:43:34.395Z,4.74
2023-03-05T18:46:05.056Z,4.41
2023-03-05T18:48:32.340Z,3.88
2023-03-05T18:51:01.984Z,3.66
2023-03-05T18:53:29.351Z,3.75
2023-03-05T18:55:56.510Z,3.71
2023-03-05T18:58:25.918Z,3.81
2023-03-05T19:00:53.427Z,3.99
2023-03-05T19:03:22.591Z,3.65
2023-03-05T19:05:51.417Z,3.35
2023-03-05T19:08:18.636Z,3.19
2023-03-05T19:10:45.864Z,3.47
2023-03-05T19:13:40.137Z,3.40
2023-03-05T19:16:13.309Z,3.30
2023-03-05T19:19:09.227Z,3.16
2023-03-05T19:21:47.998Z,3.02
2023-03-05T19:24:16.160Z,2.90
2023-03-05T19:26:44.189Z,3.11
2023-03-05T19:29:12.147Z,3.22
2023-03-05T19:31:39.777Z,3.50
2023-03-05T19:34:07.004Z,3.44
2023-03-05T19:36:35.736Z,3.15
2023-03-05T19:39:04.977Z,2.90
2023-03-05T19:41:32.309Z,2.83
2023-03-05T19:43:59.534Z,2.79
2023-03-05T19:46:26.752Z,2.62
2023-03-05T19:48:53.884Z,2.66
2023-03-05T19:51:23.872Z,2.59
2023-03-05T19:53:51.804Z,2.24
2023-03-05T19:56:19.707Z,2.13
2023-03-05T19:58:49.162Z,2.37
2023-03-05T20:01:22.298Z,2.43
2023-03-05T20:03:51.649Z,2.55
2023-03-05T20:06:19.684Z,2.49
2023-03-05T20:08:46.861Z,2.47
2023-03-05T20:11:15.983Z,2.50
2023-03-05T20:13:43.800Z,2.65
2023-03-05T20:16:19.513Z,2.64
2023-03-05T20:18:47.369Z,2.61
2023-03-05T20:21:21.663Z,2.44
2023-03-05T20:23:50.629Z,2.38
2023-03-05T20:26:18.723Z,2.26
2023-03-05T20:28:46.250Z,2.33
2023-03-05T20:31:13.369Z,2.42
2023-03-05T20:33:40.481Z,2.51
2023-03-05T20:36:08.761Z,2.16
2023-03-05T20:38:35.808Z,1.99
2023-03-05T20:41:15.189Z,1.91
2023-03-05T20:43:45.049Z,2.01
2023-03-05T20:46:21.993Z,2.01
2023-03-05T20:48:51.198Z,2.07
2023-03-05T20:51:24.738Z,1.37
2023-03-05T20:53:54.419Z,1.12
2023-03-05T20:56:21.631Z,1.14
2023-03-05T20:58:48.679Z,0.95
2023-03-05T21:01:15.774Z,0.95
2023-03-05T21:03:42.918Z,1.03
2023-03-05T21:06:10.027Z,1.00
2023-03-05T21:08:37.099Z,0.55
2023-03-05T21:11:09.459Z,0.38
2023-03-05T21:13:37.395Z,0.37
2023-03-05T21:16:25.388Z,0.26
2023-03-05T21:18:52.830Z,0.41
2023-03-05T21:21:20.061Z,0.39
2023-03-05T21:23:47.439Z,0.17
2023-03-05T21:26:15.264Z,0.16
2023-03-05T21:28:42.923Z,0.25
2023-03-05T21:31:20.212Z,0.41
2023-03-05T21:33:47.586Z,0.44
2023-03-05T21:36:18.860Z,0.31
2023-03-05T21:38:50.218Z,0.03
2023-03-05T21:41:18.354Z,-0.05
2023-03-05T21:43:45.564Z,-0.06
2023-03-05T21:46:14.349Z,0.15
2023-03-05T21:48:41.444Z,0.13
2023-03-05T21:51:38.474Z,0.12
2023-03-05T21:54:18.976Z,0.04
2023-03-05T21:56:46.795Z,0.05
2023-03-05T21:59:14.035Z,0.16
2023-03-05T22:01:41.142Z,0.19
2023-03-05T22:04:08.267Z,0.53
2023-03-05T22:06:35.554Z,1.14
2023-03-05T22:09:02.673Z,1.81
2023-03-05T22:11:29.755Z,2.16
2023-03-05T22:13:57.159Z,2.56
2023-03-05T22:16:26.035Z,2.95
2023-03-05T22:18:53.626Z,3.12
2023-03-05T22:21:23.937Z,3.35
2023-03-05T22:23:51.103Z,2.97
2023-03-05T22:26:18.196Z,2.99
2023-03-05T22:28:45.446Z,3.06
2023-03-05T22:31:21.088Z,3.09
2023-03-05T22:33:48.585Z,3.03
2023-03-05T22:36:16.329Z,2.89
2023-03-05T22:38:43.576Z,2.27
2023-03-05T22:41:12.667Z,1.99
2023-03-05T22:43:40.560Z,1.92
2023-03-05T22:46:14.997Z,1.96
2023-03-05T22:48:42.354Z,2.05
2023-03-05T22:51:11.466Z,1.97
2023-03-05T22:53:39.603Z,1.76
2023-03-05T22:56:12.832Z,1.64
2023-03-05T22:58:40.413Z,1.65
2023-03-05T23:01:14.305Z,1.67
2023-03-05T23:04:02.347Z,1.68
2023-03-05T23:06:40.201Z,1.70
2023-03-05T23:09:07.349Z,1.65
2023-03-05T23:11:34.632Z,1.62
2023-03-05T23:14:01.770Z,1.61
2023-03-05T23:16:28.859Z,1.62
2023-03-05T23:18:56.275Z,1.70
2023-03-05T23:21:23.322Z,1.67
2023-03-05T23:23:50.577Z,1.54
2023-03-05T23:26:17.690Z,1.41
2023-03-05T23:28:44.775Z,1.35
2023-03-05T23:31:11.984Z,1.47
2023-03-05T23:33:39.181Z,1.56
2023-03-05T23:36:06.525Z,1.63
2023-03-05T23:38:33.785Z,1.64
2023-03-05T23:41:02.959Z,1.57
2023-03-05T23:43:30.817Z,1.52
2023-03-05T23:45:58.125Z,1.39
2023-03-05T23:48:26.769Z,1.31
2023-03-05T23:50:54.871Z,1.37
2023-03-05T23:53:24.831Z,1.40
2023-03-05T23:55:52.594Z,1.37
2023-03-05T23:58:20.684Z,1.24
